createdAt,value
2017-12-20T00:00:21.222Z,122.17
2017-12-20T00:02:22.310Z,97.07
2017-12-20T00:04:23.287Z,118.23
2017-12-20T00:06:24.255Z,117.40
2017-12-20T00:08:25.288Z,139.80
2017-12-20T00:10:26.247Z,140.00
2017-12-20T00:12:27.231Z,129.43
2017-12-20T00:14:28.215Z,138.57
2017-12-20T00:16:29.178Z,123.80
2017-12-20T00:18:30.187Z,111.03
2017-12-20T00:20:31.145Z,116.40
2017-12-20T00:22:32.095Z,103.00
2017-12-20T00:24:33.127Z,104.93
2017-12-20T00:26:34.088Z,89.00
2017-12-20T00:28:35.097Z,94.73
2017-12-20T00:30:36.091Z,91.57
2017-12-20T00:32:37.020Z,110.87
2017-12-20T00:34:38.053Z,73.87
2017-12-20T00:36:39.075Z,90.43
2017-12-20T00:38:40.026Z,87.17
2017-12-20T00:40:41.031Z,82.77
2017-12-20T00:42:42.015Z,67.93
2017-12-20T00:44:43.010Z,80.90
2017-12-20T00:46:44.014Z,76.00
2017-12-20T00:48:45.071Z,79.07
2017-12-20T00:50:46.103Z,87.00
2017-12-20T00:52:47.070Z,75.23
2017-12-20T00:54:48.019Z,66.07
2017-12-20T00:56:48.967Z,84.47
2017-12-20T00:58:49.899Z,66.27
2017-12-20T01:00:50.945Z,87.27
2017-12-20T01:02:51.941Z,70.63
2017-12-20T01:04:53.635Z,62.73
2017-12-20T01:06:54.700Z,50.00
2017-12-20T01:08:55.659Z,62.40
2017-12-20T01:10:57.340Z,66.50
2017-12-20T01:12:58.377Z,45.27
2017-12-20T01:14:59.393Z,62.63
2017-12-20T01:17:00.415Z,47.83
2017-12-20T01:19:01.443Z,57.40
2017-12-20T01:21:02.510Z,67.23
2017-12-20T01:23:04.240Z,51.17
2017-12-20T01:25:05.428Z,89.90
2017-12-20T01:27:06.392Z,55.17
2017-12-20T01:29:07.407Z,49.10
2017-12-20T01:31:09.219Z,44.40
2017-12-20T01:33:10.175Z,50.30
2017-12-20T01:35:11.144Z,33.50
2017-12-20T01:37:12.176Z,53.00
2017-12-20T01:39:13.148Z,45.07
2017-12-20T01:41:14.161Z,51.37
2017-12-20T01:43:15.120Z,38.47
2017-12-20T01:45:16.108Z,43.30
2017-12-20T01:47:17.152Z,40.53
2017-12-20T01:49:18.834Z,51.27
2017-12-20T01:51:19.839Z,32.93
2017-12-20T01:53:20.890Z,27.10
2017-12-20T01:55:21.870Z,35.93
2017-12-20T01:57:22.907Z,31.90
2017-12-20T01:59:23.908Z,33.00
2017-12-20T02:01:25.056Z,37.13
2017-12-20T02:03:26.343Z,33.40
2017-12-20T02:05:27.377Z,27.33
2017-12-20T02:07:28.331Z,30.80
2017-12-20T02:09:29.291Z,38.47
2017-12-20T02:11:30.270Z,38.70
2017-12-20T02:13:31.277Z,41.60
2017-12-20T02:15:32.264Z,29.77
2017-12-20T02:17:33.281Z,37.23
2017-12-20T02:19:34.235Z,54.00
2017-12-20T02:21:35.252Z,35.30
2017-12-20T02:23:36.236Z,33.33
2017-12-20T02:25:37.296Z,37.93
2017-12-20T02:27:38.302Z,34.47
2017-12-20T02:29:39.242Z,43.00
2017-12-20T02:31:40.215Z,40.50
2017-12-20T02:33:41.181Z,36.77
2017-12-20T02:35:42.156Z,37.33
2017-12-20T02:37:43.238Z,33.93
2017-12-20T02:39:44.960Z,42.63
2017-12-20T02:41:45.920Z,45.37
2017-12-20T02:43:47.680Z,55.33
2017-12-20T02:45:48.695Z,60.40
2017-12-20T02:47:49.649Z,49.43
2017-12-20T02:49:50.616Z,31.63
2017-12-20T02:51:51.592Z,56.97
2017-12-20T02:53:53.281Z,44.77
2017-12-20T02:55:54.278Z,38.33
2017-12-20T02:57:56.064Z,31.83
2017-12-20T02:59:57.015Z,26.17
2017-12-20T03:01:58.173Z,34.13
2017-12-20T03:04:00.056Z,32.27
2017-12-20T03:06:01.092Z,32.93
2017-12-20T03:08:02.099Z,18.97
2017-12-20T03:10:03.071Z,29.03
2017-12-20T03:12:04.095Z,34.20
2017-12-20T03:14:05.107Z,24.23
2017-12-20T03:16:06.237Z,28.93
2017-12-20T03:18:07.272Z,22.67
2017-12-20T03:20:08.327Z,30.50
2017-12-20T03:22:10.075Z,28.67
2017-12-20T03:24:11.048Z,24.93
2017-12-20T03:26:12.056Z,21.03
2017-12-20T03:28:13.056Z,27.37
2017-12-20T03:30:14.091Z,41.10
2017-12-20T03:32:15.172Z,46.20
2017-12-20T03:34:16.164Z,60.57
2017-12-20T03:36:17.867Z,61.77
2017-12-20T03:38:19.646Z,164.33
2017-12-20T03:40:20.595Z,200.30
2017-12-20T03:42:21.576Z,55.07
2017-12-20T03:44:22.621Z,67.37
2017-12-20T03:46:23.641Z,40.00
2017-12-20T03:48:24.666Z,37.33
2017-12-20T03:50:25.668Z,19.83
2017-12-20T03:52:26.689Z,27.90
2017-12-20T03:54:27.784Z,25.10
2017-12-20T03:56:28.739Z,20.83
2017-12-20T03:58:29.711Z,27.10
2017-12-20T04:00:30.656Z,43.80
2017-12-20T04:02:31.629Z,29.93
2017-12-20T04:04:32.673Z,29.70
2017-12-20T04:06:33.671Z,26.70
2017-12-20T04:08:34.671Z,25.33
2017-12-20T04:10:35.725Z,23.33
2017-12-20T04:12:36.704Z,25.53
2017-12-20T04:14:37.789Z,25.30
2017-12-20T04:16:38.776Z,23.77
2017-12-20T04:18:39.802Z,28.10
2017-12-20T04:20:40.800Z,30.07
2017-12-20T04:22:41.755Z,29.17
2017-12-20T04:24:42.778Z,28.70
2017-12-20T04:26:43.732Z,30.43
2017-12-20T04:28:44.713Z,23.00
2017-12-20T04:30:45.745Z,18.03
2017-12-20T04:32:46.732Z,30.77
2017-12-20T04:34:47.684Z,19.70
2017-12-20T04:36:48.675Z,17.90
2017-12-20T04:38:49.644Z,21.20
2017-12-20T04:40:50.715Z,22.47
2017-12-20T04:42:51.802Z,24.97
2017-12-20T04:44:52.868Z,17.57
2017-12-20T04:46:53.914Z,19.50
2017-12-20T04:48:54.989Z,18.53
2017-12-20T04:50:56.157Z,20.23
2017-12-20T04:52:57.204Z,22.70
2017-12-20T04:54:58.152Z,19.30
2017-12-20T04:56:59.103Z,22.23
2017-12-20T04:59:00.100Z,17.30
2017-12-20T05:01:01.166Z,17.50
2017-12-20T05:03:02.279Z,19.73
2017-12-20T05:05:03.248Z,21.70
2017-12-20T05:07:04.388Z,18.60
2017-12-20T05:09:05.370Z,15.13
2017-12-20T05:11:06.375Z,16.63
2017-12-20T05:13:07.617Z,20.57
2017-12-20T05:15:08.777Z,18.30
2017-12-20T05:17:09.898Z,18.20
2017-12-20T05:19:10.894Z,21.57
2017-12-20T05:21:11.895Z,18.00
2017-12-20T05:23:13.599Z,15.50
2017-12-20T05:25:14.551Z,22.43
2017-12-20T05:27:15.550Z,15.27
2017-12-20T05:29:16.530Z,15.17
2017-12-20T05:31:17.703Z,19.10
2017-12-20T05:33:18.716Z,13.67
2017-12-20T05:35:19.731Z,16.40
2017-12-20T05:37:20.798Z,13.23
2017-12-20T05:39:21.826Z,18.67
2017-12-20T05:41:22.908Z,14.23
2017-12-20T05:43:23.965Z,14.90
2017-12-20T05:45:24.980Z,20.63
2017-12-20T05:47:26.039Z,16.50
2017-12-20T05:49:27.798Z,14.53
2017-12-20T05:51:28.793Z,16.60
2017-12-20T05:53:29.776Z,12.30
2017-12-20T05:55:30.912Z,12.43
2017-12-20T05:57:31.892Z,11.33
2017-12-20T05:59:32.934Z,10.37
2017-12-20T06:01:34.005Z,11.27
2017-12-20T06:03:35.137Z,9.77
2017-12-20T06:05:36.342Z,9.93
2017-12-20T06:07:37.466Z,10.37
2017-12-20T06:09:38.411Z,14.53
2017-12-20T06:11:39.494Z,11.67
2017-12-20T06:13:40.592Z,9.50
2017-12-20T06:15:41.626Z,13.43
2017-12-20T06:17:43.304Z,10.73
2017-12-20T06:19:44.276Z,11.83
2017-12-20T06:21:45.247Z,15.83
2017-12-20T06:23:46.218Z,8.63
2017-12-20T06:25:47.218Z,13.77
2017-12-20T06:27:48.259Z,17.30
2017-12-20T06:29:49.401Z,16.07
2017-12-20T06:31:50.367Z,10.80
2017-12-20T06:33:51.336Z,9.93
2017-12-20T06:35:52.378Z,9.57
2017-12-20T06:37:53.356Z,12.23
2017-12-20T06:39:55.128Z,14.63
2017-12-20T06:41:56.289Z,10.10
2017-12-20T06:43:57.396Z,10.80
2017-12-20T06:45:58.450Z,15.00
2017-12-20T06:47:59.513Z,10.90
2017-12-20T06:50:00.467Z,12.07
2017-12-20T06:52:01.518Z,11.27
2017-12-20T06:54:02.542Z,10.43
2017-12-20T06:56:03.650Z,12.23
2017-12-20T06:58:04.664Z,12.87
2017-12-20T07:00:05.746Z,10.30
2017-12-20T07:02:06.744Z,9.80
2017-12-20T07:04:07.791Z,11.17
2017-12-20T07:06:09.488Z,9.33
2017-12-20T07:08:10.516Z,9.00
2017-12-20T07:10:11.552Z,8.87
2017-12-20T07:12:12.624Z,10.73
2017-12-20T07:14:13.588Z,10.70
2017-12-20T07:16:14.540Z,11.03
2017-12-20T07:18:15.523Z,16.27
2017-12-20T07:20:16.547Z,9.07
2017-12-20T07:22:17.516Z,13.40
2017-12-20T07:24:18.451Z,10.07
2017-12-20T07:26:19.587Z,11.23
2017-12-20T07:28:20.565Z,16.13
2017-12-20T07:30:21.511Z,9.20
2017-12-20T07:32:22.491Z,9.83
2017-12-20T07:34:23.473Z,9.57
2017-12-20T07:36:24.424Z,14.70
2017-12-20T07:38:25.499Z,7.60
2017-12-20T07:40:26.451Z,10.30
2017-12-20T07:42:27.470Z,8.57
2017-12-20T07:44:28.467Z,8.73
2017-12-20T07:46:29.484Z,9.63
2017-12-20T07:48:30.468Z,12.30
2017-12-20T07:50:31.506Z,13.23
2017-12-20T07:52:32.479Z,10.17
2017-12-20T07:54:33.463Z,24.57
2017-12-20T07:56:34.459Z,13.23
2017-12-20T07:58:35.444Z,14.90
2017-12-20T08:00:36.585Z,12.70
2017-12-20T08:02:37.570Z,11.40
2017-12-20T08:04:38.619Z,13.67
2017-12-20T08:06:40.308Z,19.30
2017-12-20T08:08:41.306Z,12.00
2017-12-20T08:10:42.292Z,13.87
2017-12-20T08:12:43.249Z,12.00
2017-12-20T08:14:44.224Z,21.10
2017-12-20T08:16:45.240Z,12.93
2017-12-20T08:18:46.225Z,15.37
2017-12-20T08:20:47.208Z,12.63
2017-12-20T08:22:48.944Z,19.93
2017-12-20T08:24:49.900Z,21.10
2017-12-20T08:26:50.857Z,21.90
2017-12-20T08:28:52.550Z,14.67
2017-12-20T08:30:53.543Z,17.03
2017-12-20T08:32:54.524Z,14.80
2017-12-20T08:34:56.224Z,16.40
2017-12-20T08:36:57.216Z,11.20
2017-12-20T08:38:58.174Z,13.80
2017-12-20T08:40:59.285Z,16.27
2017-12-20T08:43:00.948Z,15.00
2017-12-20T08:45:01.908Z,11.70
2017-12-20T08:47:02.889Z,15.50
2017-12-20T08:49:03.899Z,14.10
2017-12-20T08:51:04.919Z,21.23
2017-12-20T08:53:05.884Z,18.30
2017-12-20T08:55:06.838Z,17.40
2017-12-20T08:57:07.821Z,13.27
2017-12-20T08:59:09.707Z,16.87
2017-12-20T09:01:10.729Z,16.23
2017-12-20T09:03:11.763Z,15.50
2017-12-20T09:05:12.717Z,22.50
2017-12-20T09:07:13.730Z,16.50
2017-12-20T09:09:14.701Z,17.70
2017-12-20T09:11:15.643Z,19.70
2017-12-20T09:13:16.595Z,28.63
2017-12-20T09:15:26.817Z,14.40
2017-12-20T09:17:29.139Z,34.47
2017-12-20T09:19:30.367Z,14.60
2017-12-20T09:21:32.614Z,17.87
2017-12-20T09:23:33.616Z,13.43
2017-12-20T09:25:34.719Z,9.60
2017-12-20T09:27:35.709Z,16.70
2017-12-20T09:29:36.664Z,12.10
2017-12-20T09:31:37.595Z,13.03
2017-12-20T09:33:38.617Z,9.90
2017-12-20T09:35:39.569Z,18.23
2017-12-20T09:37:40.555Z,11.60
2017-12-20T09:39:41.509Z,8.50
2017-12-20T09:41:42.477Z,8.40
2017-12-20T09:43:43.459Z,24.07
2017-12-20T09:45:44.580Z,11.37
2017-12-20T09:47:45.602Z,9.80
2017-12-20T09:49:48.537Z,8.73
2017-12-20T09:51:50.184Z,11.50
2017-12-20T09:53:51.139Z,11.73
2017-12-20T09:55:52.159Z,13.37
2017-12-20T09:57:53.129Z,17.10
2017-12-20T09:59:54.104Z,8.53
2017-12-20T10:01:55.107Z,8.50
2017-12-20T10:03:56.092Z,8.50
2017-12-20T10:05:57.059Z,8.40
2017-12-20T10:07:58.080Z,12.00
2017-12-20T10:09:59.097Z,8.40
2017-12-20T10:12:00.106Z,16.10
2017-12-20T10:14:01.856Z,8.80
2017-12-20T10:16:02.894Z,8.93
2017-12-20T10:18:03.923Z,8.93
2017-12-20T10:20:04.918Z,8.03
2017-12-20T10:22:06.632Z,9.67
2017-12-20T10:24:07.687Z,18.50
2017-12-20T10:26:08.663Z,9.40
2017-12-20T10:28:09.708Z,11.23
2017-12-20T10:30:11.412Z,17.47
2017-12-20T10:32:12.361Z,9.77
2017-12-20T10:34:13.325Z,8.57
2017-12-20T10:36:14.330Z,8.47
2017-12-20T10:38:15.314Z,6.73
2017-12-20T10:40:16.326Z,13.43
2017-12-20T10:42:17.242Z,6.03
2017-12-20T10:44:18.279Z,9.40
2017-12-20T10:46:19.292Z,9.20
2017-12-20T10:48:20.252Z,7.93
2017-12-20T10:50:21.235Z,8.90
2017-12-20T10:52:22.932Z,5.50
2017-12-20T10:54:23.968Z,6.07
2017-12-20T10:56:24.961Z,7.80
2017-12-20T10:58:26.186Z,5.90
2017-12-20T11:00:27.160Z,8.07
2017-12-20T11:02:28.184Z,6.40
2017-12-20T11:04:29.159Z,6.13
2017-12-20T11:06:30.154Z,6.73
2017-12-20T11:08:31.186Z,8.50
2017-12-20T11:10:32.182Z,5.90
2017-12-20T11:12:33.276Z,9.47
2017-12-20T11:14:34.265Z,8.87
2017-12-20T11:16:35.257Z,8.00
2017-12-20T11:18:36.334Z,8.70
2017-12-20T11:20:37.287Z,8.87
2017-12-20T11:22:38.260Z,8.43
2017-12-20T11:24:39.387Z,8.10
2017-12-20T11:26:40.437Z,10.00
2017-12-20T11:28:41.507Z,24.33
2017-12-20T11:30:42.485Z,9.13
2017-12-20T11:32:43.509Z,11.80
2017-12-20T11:34:44.577Z,7.67
2017-12-20T11:36:45.554Z,12.40
2017-12-20T11:38:46.604Z,10.53
2017-12-20T11:40:47.657Z,10.00
2017-12-20T11:42:48.753Z,9.73
2017-12-20T11:44:49.706Z,14.73
2017-12-20T11:46:50.751Z,11.40
2017-12-20T11:48:51.808Z,18.23
2017-12-20T11:50:52.817Z,13.57
2017-12-20T11:52:54.628Z,12.27
2017-12-20T11:54:55.627Z,13.80
2017-12-20T11:56:56.689Z,13.40
2017-12-20T11:58:57.736Z,19.03
2017-12-20T12:00:58.736Z,11.63
2017-12-20T12:02:59.733Z,15.73
2017-12-20T12:05:00.800Z,14.10
2017-12-20T12:07:01.748Z,19.33
2017-12-20T12:09:02.793Z,11.90
2017-12-20T12:11:03.769Z,15.77
2017-12-20T12:13:04.811Z,12.87
2017-12-20T12:15:05.860Z,13.03
2017-12-20T12:17:06.843Z,14.57
2017-12-20T12:19:07.924Z,15.40
2017-12-20T12:21:08.888Z,13.90
2017-12-20T12:23:09.929Z,16.30
2017-12-20T12:25:11.594Z,15.60
2017-12-20T12:27:12.581Z,15.13
2017-12-20T12:29:13.578Z,14.63
2017-12-20T12:31:14.536Z,13.77
2017-12-20T12:33:15.479Z,20.50
2017-12-20T12:35:23.561Z,16.43
2017-12-20T12:37:24.518Z,22.33
2017-12-20T12:39:25.508Z,25.93
2017-12-20T12:41:26.454Z,16.73
2017-12-20T12:43:27.502Z,21.30
2017-12-20T12:45:28.494Z,24.10
2017-12-20T12:47:29.562Z,18.20
2017-12-20T12:49:30.559Z,19.27
2017-12-20T12:51:31.511Z,25.13
2017-12-20T12:53:32.498Z,18.70
2017-12-20T12:55:33.748Z,19.87
2017-12-20T12:57:34.788Z,20.63
2017-12-20T12:59:35.914Z,22.37
2017-12-20T13:01:37.928Z,37.87
2017-12-20T13:03:38.911Z,25.13
2017-12-20T13:05:39.954Z,23.43
2017-12-20T13:07:40.986Z,20.93
2017-12-20T13:09:41.996Z,23.40
2017-12-20T13:11:43.099Z,27.50
2017-12-20T13:13:44.166Z,22.77
2017-12-20T13:15:45.263Z,23.33
2017-12-20T13:17:46.248Z,20.10
2017-12-20T13:19:47.236Z,30.83
2017-12-20T13:21:48.255Z,26.63
2017-12-20T13:23:49.352Z,23.87
2017-12-20T13:25:50.388Z,24.10
2017-12-20T13:27:51.466Z,28.10
2017-12-20T13:29:52.494Z,27.93
2017-12-20T13:31:53.524Z,35.33
2017-12-20T13:33:54.548Z,36.77
2017-12-20T13:35:55.602Z,29.50
2017-12-20T13:37:57.411Z,27.07
2017-12-20T13:39:58.445Z,25.90
2017-12-20T13:41:59.459Z,32.53
2017-12-20T13:44:00.506Z,25.77
2017-12-20T13:46:01.519Z,34.67
2017-12-20T13:48:02.507Z,29.37
2017-12-20T13:50:03.480Z,33.93
2017-12-20T13:52:04.458Z,30.83
2017-12-20T13:54:05.495Z,36.40
2017-12-20T13:56:06.440Z,35.73
2017-12-20T13:58:07.400Z,34.77
2017-12-20T14:00:08.360Z,46.63
2017-12-20T14:02:10.634Z,37.73
2017-12-20T14:04:11.869Z,49.60
2017-12-20T14:06:12.857Z,43.00
2017-12-20T14:08:14.108Z,34.57
2017-12-20T14:10:15.096Z,40.87
2017-12-20T14:12:16.196Z,37.57
2017-12-20T14:14:17.316Z,35.10
2017-12-20T14:16:18.476Z,37.40
2017-12-20T14:18:19.471Z,43.90
2017-12-20T14:20:22.177Z,39.03
2017-12-20T14:22:23.232Z,47.93
2017-12-20T14:24:24.979Z,44.90
2017-12-20T14:26:26.054Z,50.10
2017-12-20T14:28:27.024Z,56.07
2017-12-20T14:30:28.077Z,48.67
2017-12-20T14:32:29.108Z,46.53
2017-12-20T14:34:30.192Z,49.90
2017-12-20T14:36:31.175Z,43.77
2017-12-20T14:38:32.180Z,52.30
2017-12-20T14:40:33.176Z,46.27
2017-12-20T14:42:34.168Z,51.63
2017-12-20T14:44:35.158Z,51.57
2017-12-20T14:46:36.201Z,59.17
2017-12-20T14:48:37.159Z,54.13
2017-12-20T14:50:38.219Z,55.27
2017-12-20T14:52:39.211Z,52.20
2017-12-20T14:54:40.195Z,51.43
2017-12-20T14:56:41.160Z,52.43
2017-12-20T14:58:42.119Z,51.47
2017-12-20T15:00:43.090Z,40.33
2017-12-20T15:02:44.144Z,46.20
2017-12-20T15:04:45.154Z,41.57
2017-12-20T15:06:46.118Z,49.10
2017-12-20T15:08:47.132Z,53.00
2017-12-20T15:10:48.864Z,36.43
2017-12-20T15:12:49.864Z,40.43
2017-12-20T15:14:50.928Z,38.87
2017-12-20T15:16:51.875Z,48.00
2017-12-20T15:18:52.811Z,57.77
2017-12-20T15:20:53.787Z,44.67
2017-12-20T15:22:54.813Z,39.50
2017-12-20T15:24:56.050Z,42.37
2017-12-20T15:26:57.099Z,43.83
2017-12-20T15:28:58.071Z,44.10
2017-12-20T15:30:59.024Z,36.97
2017-12-20T15:32:59.987Z,44.60
2017-12-20T15:35:00.961Z,42.23
2017-12-20T15:37:01.908Z,37.40
2017-12-20T15:39:03.622Z,40.67
2017-12-20T15:41:04.608Z,44.37
2017-12-20T15:43:05.616Z,48.23
2017-12-20T15:45:06.703Z,43.40
2017-12-20T15:47:07.718Z,47.57
2017-12-20T15:49:08.679Z,39.40
2017-12-20T15:51:09.634Z,45.97
2017-12-20T15:53:10.587Z,48.20
2017-12-20T15:55:12.321Z,45.87
2017-12-20T15:57:13.286Z,44.43
2017-12-20T15:59:14.259Z,42.23
2017-12-20T16:01:15.222Z,51.73
2017-12-20T16:03:16.197Z,44.33
2017-12-20T16:05:17.150Z,50.23
2017-12-20T16:07:18.126Z,43.90
2017-12-20T16:09:19.841Z,48.33
2017-12-20T16:11:20.827Z,40.77
2017-12-20T16:13:21.796Z,42.57
2017-12-20T16:15:23.507Z,40.30
2017-12-20T16:17:24.455Z,41.17
2017-12-20T16:19:25.470Z,38.90
2017-12-20T16:21:26.475Z,55.37
2017-12-20T16:23:29.492Z,47.00
2017-12-20T16:25:30.460Z,55.63
2017-12-20T16:27:31.418Z,48.27
2017-12-20T16:29:33.576Z,37.60
2017-12-20T16:31:34.572Z,48.37
2017-12-20T16:33:35.663Z,39.83
2017-12-20T16:35:36.663Z,37.10
2017-12-20T16:37:37.606Z,39.70
2017-12-20T16:39:38.584Z,40.93
2017-12-20T16:41:39.579Z,50.03
2017-12-20T16:43:40.570Z,43.70
2017-12-20T16:45:41.606Z,63.67
2017-12-20T16:47:42.580Z,51.67
2017-12-20T16:49:44.295Z,45.30
2017-12-20T16:51:45.384Z,47.70
2017-12-20T16:53:46.387Z,38.20
2017-12-20T16:55:47.492Z,37.37
2017-12-20T16:57:48.498Z,40.63
2017-12-20T16:59:49.487Z,38.93
2017-12-20T17:01:50.511Z,30.70
2017-12-20T17:03:51.516Z,33.50
2017-12-20T17:05:52.477Z,36.33
2017-12-20T17:07:53.787Z,38.20
2017-12-20T17:09:54.795Z,29.13
2017-12-20T17:11:55.772Z,31.20
2017-12-20T17:13:56.738Z,29.53
2017-12-20T17:15:57.670Z,45.77
2017-12-20T17:17:58.659Z,25.63
2017-12-20T17:19:59.611Z,27.73
2017-12-20T17:22:00.603Z,31.63
2017-12-20T17:24:01.572Z,23.60
2017-12-20T17:26:02.579Z,25.70
2017-12-20T17:28:06.160Z,22.63
2017-12-20T17:30:07.132Z,22.20
2017-12-20T17:32:08.083Z,28.67
2017-12-20T17:34:09.050Z,24.83
2017-12-20T17:36:10.039Z,28.53
2017-12-20T17:38:11.004Z,26.57
2017-12-20T17:40:11.946Z,33.43
2017-12-20T17:42:12.946Z,33.80
2017-12-20T17:44:14.542Z,30.63
2017-12-20T17:46:15.644Z,27.70
2017-12-20T17:48:16.675Z,36.10
2017-12-20T17:50:17.625Z,32.90
2017-12-20T17:52:18.595Z,33.87
2017-12-20T17:54:19.572Z,26.53
2017-12-20T17:56:20.544Z,24.23
2017-12-20T17:58:21.535Z,34.47
2017-12-20T18:00:22.808Z,33.43
2017-12-20T18:02:23.771Z,30.90
2017-12-20T18:04:24.740Z,22.40
2017-12-20T18:06:25.738Z,22.50
2017-12-20T18:08:26.754Z,22.60
2017-12-20T18:10:27.787Z,28.33
2017-12-20T18:12:33.808Z,28.17
2017-12-20T18:14:34.816Z,20.57
2017-12-20T18:16:35.825Z,20.57
2017-12-20T18:18:36.869Z,28.23
2017-12-20T18:20:37.923Z,24.23
2017-12-20T18:22:39.694Z,25.97
2017-12-20T18:24:40.697Z,24.53
2017-12-20T18:26:41.680Z,37.80
2017-12-20T18:28:42.689Z,25.17
2017-12-20T18:30:43.714Z,22.63
2017-12-20T18:32:44.722Z,23.83
2017-12-20T18:34:45.689Z,21.83
2017-12-20T18:36:46.724Z,25.17
2017-12-20T18:38:48.441Z,25.63
2017-12-20T18:40:49.451Z,24.07
2017-12-20T18:42:50.558Z,20.07
2017-12-20T18:44:52.657Z,19.77
2017-12-20T18:46:53.682Z,23.27
2017-12-20T18:48:54.682Z,23.03
2017-12-20T18:50:55.643Z,39.87
2017-12-20T18:52:56.719Z,28.37
2017-12-20T18:54:57.686Z,24.10
2017-12-20T18:57:02.462Z,30.20
2017-12-20T18:59:03.539Z,23.13
2017-12-20T19:01:04.800Z,28.80
2017-12-20T19:03:05.979Z,26.03
2017-12-20T19:05:06.968Z,24.17
2017-12-20T19:07:08.010Z,26.13
2017-12-20T19:09:14.326Z,22.80
2017-12-20T19:11:15.405Z,34.90
2017-12-20T19:13:17.087Z,30.73
2017-12-20T19:15:18.064Z,34.77
2017-12-20T19:17:19.087Z,37.77
2017-12-20T19:19:20.132Z,33.13
2017-12-20T19:21:21.128Z,35.10
2017-12-20T19:23:24.832Z,34.47
2017-12-20T19:25:26.012Z,33.03
2017-12-20T19:27:27.815Z,29.70
2017-12-20T19:29:28.813Z,36.80
2017-12-20T19:31:29.810Z,35.67
2017-12-20T19:33:30.838Z,36.10
2017-12-20T19:35:31.972Z,37.40
2017-12-20T19:37:32.932Z,39.17
2017-12-20T19:39:33.916Z,43.17
2017-12-20T19:41:34.963Z,37.30
2017-12-20T19:43:35.967Z,45.10
2017-12-20T19:45:37.684Z,40.27
2017-12-20T19:47:38.711Z,33.80
2017-12-20T19:49:39.674Z,38.63
2017-12-20T19:51:40.657Z,34.30
2017-12-20T19:53:41.664Z,33.07
2017-12-20T19:55:42.630Z,49.10
2017-12-20T19:57:43.665Z,39.50
2017-12-20T19:59:44.682Z,47.60
2017-12-20T20:01:45.688Z,45.17
2017-12-20T20:03:47.416Z,48.33
2017-12-20T20:05:48.443Z,57.63
2017-12-20T20:07:49.477Z,59.93
2017-12-20T20:09:50.617Z,59.70
2017-12-20T20:11:51.748Z,61.60
2017-12-20T20:13:52.780Z,68.13
2017-12-20T20:15:53.736Z,64.37
2017-12-20T20:17:55.893Z,66.07
2017-12-20T20:19:56.987Z,81.57
2017-12-20T20:21:57.973Z,87.33
2017-12-20T20:23:59.102Z,83.53
2017-12-20T20:26:00.140Z,92.70
2017-12-20T20:28:01.194Z,81.30
2017-12-20T20:30:02.235Z,98.47
2017-12-20T20:32:03.419Z,108.97
2017-12-20T20:34:04.443Z,106.10
2017-12-20T20:36:06.326Z,96.20
2017-12-20T20:38:07.307Z,104.33
2017-12-20T20:40:08.300Z,130.80
2017-12-20T20:42:09.252Z,84.77
2017-12-20T20:44:11.806Z,108.80
2017-12-20T20:46:12.848Z,118.03
2017-12-20T20:48:14.536Z,116.50
2017-12-20T20:50:15.631Z,94.77
2017-12-20T20:52:16.757Z,91.10
2017-12-20T20:54:17.775Z,111.57
2017-12-20T20:56:18.797Z,92.57
2017-12-20T20:58:26.033Z,101.37
2017-12-20T21:00:27.180Z,110.47
2017-12-20T21:02:28.170Z,122.47
2017-12-20T21:04:29.904Z,135.50
2017-12-20T21:06:31.599Z,172.00
2017-12-20T21:08:32.570Z,200.67
2017-12-20T21:10:33.534Z,288.70
2017-12-20T21:12:34.523Z,193.40
2017-12-20T21:14:35.485Z,172.70
2017-12-20T21:16:36.489Z,189.63
2017-12-20T21:18:37.518Z,188.60
2017-12-20T21:20:38.491Z,158.40
2017-12-20T21:22:39.612Z,144.77
2017-12-20T21:24:40.572Z,202.83
2017-12-20T21:26:41.659Z,244.13
2017-12-20T21:28:42.595Z,206.07
2017-12-20T21:30:43.579Z,183.23
2017-12-20T21:32:44.611Z,190.83
2017-12-20T21:34:45.591Z,213.70
2017-12-20T21:36:46.596Z,138.97
2017-12-20T21:38:47.564Z,129.47
2017-12-20T21:40:48.503Z,155.00
2017-12-20T21:42:49.474Z,161.43
2017-12-20T21:44:50.436Z,163.93
2017-12-20T21:46:51.756Z,126.27
2017-12-20T21:48:52.810Z,118.53
2017-12-20T21:50:53.883Z,150.10
2017-12-20T21:52:54.904Z,91.93
2017-12-20T21:54:56.818Z,88.77
2017-12-20T21:56:57.848Z,133.47
2017-12-20T21:58:58.884Z,88.30
2017-12-20T22:01:00.919Z,91.27
2017-12-20T22:03:01.981Z,75.90
2017-12-20T22:05:03.817Z,85.13
2017-12-20T22:07:04.974Z,90.90
2017-12-20T22:09:05.981Z,96.50
2017-12-20T22:11:06.944Z,104.10
2017-12-20T22:13:08.003Z,84.03
2017-12-20T22:15:08.995Z,113.87
2017-12-20T22:17:10.035Z,111.13
2017-12-20T22:19:10.974Z,71.37
2017-12-20T22:21:11.943Z,82.40
2017-12-20T22:23:12.944Z,90.23
2017-12-20T22:25:13.883Z,105.80
2017-12-20T22:27:14.939Z,94.27
2017-12-20T22:29:15.936Z,77.50
2017-12-20T22:31:16.924Z,88.23
2017-12-20T22:33:17.984Z,63.07
2017-12-20T22:35:19.086Z,68.20
2017-12-20T22:37:20.035Z,130.80
2017-12-20T22:39:21.129Z,110.80
2017-12-20T22:41:22.063Z,77.33
2017-12-20T22:43:23.023Z,80.40
2017-12-20T22:45:24.036Z,70.17
2017-12-20T22:47:25.019Z,111.73
2017-12-20T22:49:25.986Z,87.07
2017-12-20T22:51:27.030Z,77.37
2017-12-20T22:53:27.995Z,82.03
2017-12-20T22:55:28.948Z,94.80
2017-12-20T22:57:29.971Z,102.30
2017-12-20T22:59:31.004Z,67.57
2017-12-20T23:01:31.995Z,104.23
2017-12-20T23:03:32.942Z,85.47
2017-12-20T23:05:34.059Z,77.73
2017-12-20T23:07:35.120Z,69.10
2017-12-20T23:09:36.110Z,63.57
2017-12-20T23:11:37.059Z,94.27
2017-12-20T23:13:38.127Z,108.63
2017-12-20T23:15:39.909Z,97.37
2017-12-20T23:17:40.954Z,85.93
2017-12-20T23:19:42.050Z,86.37
2017-12-20T23:21:43.050Z,86.23
2017-12-20T23:23:44.126Z,86.50
2017-12-20T23:25:45.238Z,89.80
2017-12-20T23:27:46.193Z,79.37
2017-12-20T23:29:47.867Z,87.90
2017-12-20T23:31:48.808Z,77.27
2017-12-20T23:33:49.829Z,89.77
2017-12-20T23:35:51.587Z,90.07
2017-12-20T23:37:52.715Z,86.57
2017-12-20T23:39:53.699Z,100.27
2017-12-20T23:41:54.711Z,79.53
2017-12-20T23:43:55.703Z,78.20
2017-12-20T23:45:57.400Z,108.93
2017-12-20T23:47:58.405Z,68.90
2017-12-20T23:49:59.380Z,103.53
2017-12-20T23:52:00.339Z,85.60
2017-12-20T23:54:01.419Z,102.60
2017-12-20T23:56:02.524Z,88.33
2017-12-20T23:58:03.524Z,98.13
